Time;durP1;ratioP1;P1;durP2;ratioP2;P2;SDS_P1;SDS_P2;PMS_P1;PMS_P2;Temp;Humidity;BMP_temperature;BMP_pressure;BME280_temperature;BME280_humidity;BME280_pressure;Samples;Min_cycle;Max_cycle;Signal;HPM_P1;HPM_P2
2023/03/07 00:01:25;;;;;;;53.20;45.97;;;3.50;99.90;;;;;;4898776;29;20977;-72
2023/03/07 00:03:53;;;;;;;53.57;45.40;;;3.50;99.90;;;;;;4899975;29;20565;-72
2023/03/07 00:06:21;;;;;;;55.07;44.43;;;3.50;99.90;;;;;;4899604;29;20473;-72
2023/03/07 00:08:50;;;;;;;48.83;42.80;;;3.50;99.90;;;;;;4899881;29;20448;-72
2023/03/07 00:11:19;;;;;;;52.20;45.17;;;3.50;99.90;;;;;;4899655;29;20857;-72
2023/03/07 00:13:47;;;;;;;53.30;44.67;;;3.50;99.90;;;;;;4899787;29;20470;-72
2023/03/07 00:16:17;;;;;;;53.10;45.03;;;3.50;99.90;;;;;;4898237;29;20463;-73
2023/03/07 00:18:47;;;;;;;52.27;44.07;;;3.50;99.90;;;;;;4899519;29;20437;-73
2023/03/07 00:21:17;;;;;;;48.20;40.63;;;3.50;99.90;;;;;;4898171;29;20889;-73
2023/03/07 00:23:46;;;;;;;51.53;42.03;;;3.50;99.90;;;;;;4898076;29;20476;-72
2023/03/07 00:26:15;;;;;;;48.07;39.53;;;3.50;99.90;;;;;;4899228;29;20487;-73
2023/03/07 00:28:47;;;;;;;48.57;42.13;;;3.50;99.90;;;;;;4898089;29;20548;-73
2023/03/07 00:31:16;;;;;;;50.17;40.97;;;3.50;99.90;;;;;;4898069;29;20481;-73
2023/03/07 00:33:44;;;;;;;47.60;39.57;;;3.50;99.90;;;;;;4899381;29;20872;-73
2023/03/07 00:36:15;;;;;;;47.07;37.53;;;3.50;99.90;;;;;;4897907;29;20456;-73
2023/03/07 00:38:43;;;;;;;46.17;39.73;;;3.50;99.90;;;;;;4897938;29;20488;-73
2023/03/07 00:41:13;;;;;;;43.63;38.33;;;3.50;99.90;;;;;;4897884;29;20834;-73
2023/03/07 00:43:42;;;;;;;46.83;39.20;;;3.50;99.90;;;;;;4897663;29;21069;-73
2023/03/07 00:46:10;;;;;;;44.43;36.20;;;3.50;99.90;;;;;;4897648;29;20473;-73
2023/03/07 00:48:39;;;;;;;40.53;35.20;;;3.50;99.90;;;;;;4897664;29;20448;-73
2023/03/07 00:51:10;;;;;;;41.13;33.90;;;3.50;99.90;;;;;;4897860;29;20464;-73
2023/03/07 00:53:40;;;;;;;43.17;35.30;;;3.50;99.90;;;;;;4897553;29;20487;-73
2023/03/07 00:56:13;;;;;;;42.33;36.67;;;3.40;99.90;;;;;;4897620;29;20445;-73
2023/03/07 00:58:44;;;;;;;43.10;35.83;;;3.50;99.90;;;;;;4897568;29;20536;-73
2023/03/07 01:01:14;;;;;;;41.40;35.93;;;3.40;99.90;;;;;;4898748;29;20448;-74
2023/03/07 01:03:43;;;;;;;43.37;37.40;;;3.40;99.90;;;;;;4897677;29;20486;-73
2023/03/07 01:06:16;;;;;;;39.20;35.00;;;3.40;99.90;;;;;;4897683;29;20891;-73
2023/03/07 01:08:45;;;;;;;40.00;33.73;;;3.40;99.90;;;;;;4897397;29;20505;-73
2023/03/07 01:11:16;;;;;;;39.10;34.17;;;3.40;99.90;;;;;;4897366;29;20513;-74
2023/03/07 01:13:44;;;;;;;36.50;32.20;;;3.40;99.90;;;;;;4897276;29;20491;-74
2023/03/07 01:16:15;;;;;;;36.20;29.70;;;3.40;99.90;;;;;;4898115;29;20546;-74
2023/03/07 01:18:44;;;;;;;34.37;30.27;;;3.40;99.90;;;;;;4897576;29;20873;-74
2023/03/07 01:21:14;;;;;;;32.17;28.43;;;3.40;99.90;;;;;;4897166;29;20453;-73
2023/03/07 01:23:43;;;;;;;32.07;26.57;;;3.40;99.90;;;;;;4898615;29;20455;-73
2023/03/07 01:26:17;;;;;;;36.27;28.17;;;3.40;99.90;;;;;;4896925;29;20995;-74
2023/03/07 01:28:46;;;;;;;31.57;26.93;;;3.40;99.90;;;;;;4897221;29;20444;-74
2023/03/07 01:31:15;;;;;;;31.87;28.10;;;3.40;99.90;;;;;;4898557;29;20448;-74
2023/03/07 01:33:43;;;;;;;28.90;25.73;;;3.40;99.90;;;;;;4897139;29;21046;-73
2023/03/07 01:36:17;;;;;;;28.10;25.10;;;3.40;99.90;;;;;;4898358;29;20849;-73
2023/03/07 01:38:47;;;;;;;30.63;26.77;;;3.40;99.90;;;;;;4897272;29;20496;-73
2023/03/07 01:41:17;;;;;;;33.03;27.20;;;3.40;99.90;;;;;;4897072;29;20458;-73
2023/03/07 01:43:48;;;;;;;29.63;26.43;;;3.40;99.90;;;;;;4897028;29;20852;-73
2023/03/07 01:46:42;;;;;;;30.17;26.40;;;3.40;99.90;;;;;;4897078;29;20476;-73
2023/03/07 01:49:22;;;;;;;31.27;27.00;;;3.40;99.90;;;;;;4897439;29;20462;-73
2023/03/07 01:52:01;;;;;;;29.53;26.40;;;3.40;99.90;;;;;;4896892;29;20537;-73
2023/03/07 01:54:32;;;;;;;30.13;25.67;;;3.40;99.90;;;;;;4897005;29;20449;-73
2023/03/07 01:57:04;;;;;;;29.00;26.00;;;3.40;99.90;;;;;;4897084;29;21000;-73
2023/03/07 01:59:36;;;;;;;27.57;24.60;;;3.40;99.90;;;;;;4898676;29;20431;-73
2023/03/07 02:02:10;;;;;;;29.80;26.23;;;3.40;99.90;;;;;;4898299;29;20476;-73
2023/03/07 02:04:43;;;;;;;30.40;26.33;;;3.50;99.90;;;;;;4896923;29;20439;-73
2023/03/07 02:07:27;;;;;;;27.77;24.80;;;3.50;99.90;;;;;;4897018;29;20469;-73
2023/03/07 02:09:56;;;;;;;26.90;23.50;;;3.50;99.90;;;;;;4898187;29;20432;-73
2023/03/07 02:12:26;;;;;;;25.27;22.67;;;3.50;99.90;;;;;;4897929;29;20515;-73
2023/03/07 02:14:56;;;;;;;22.20;19.60;;;3.60;99.90;;;;;;4897411;29;20449;-73
2023/03/07 02:17:25;;;;;;;22.37;18.67;;;3.60;99.90;;;;;;4899851;29;20441;-73
2023/03/07 02:20:04;;;;;;;21.23;19.07;;;3.60;99.90;;;;;;4900346;29;20452;-73
2023/03/07 02:22:32;;;;;;;20.87;16.30;;;3.60;99.90;;;;;;4900332;29;20476;-73
2023/03/07 02:25:05;;;;;;;17.80;15.03;;;3.60;99.90;;;;;;4900612;29;20475;-73
2023/03/07 02:27:37;;;;;;;16.57;14.73;;;3.60;99.90;;;;;;4900109;29;20574;-73
2023/03/07 02:30:07;;;;;;;16.13;13.27;;;3.60;99.90;;;;;;4900497;29;20463;-73
2023/03/07 02:32:36;;;;;;;15.20;13.23;;;3.70;99.90;;;;;;4900160;29;21021;-73
2023/03/07 02:35:13;;;;;;;14.47;12.60;;;3.70;99.90;;;;;;4901497;29;20894;-73
2023/03/07 02:37:44;;;;;;;13.97;11.93;;;3.70;99.90;;;;;;4900562;29;20447;-73
2023/03/07 02:40:16;;;;;;;14.13;11.30;;;3.70;99.90;;;;;;4900173;29;20442;-72
2023/03/07 02:42:47;;;;;;;14.07;11.60;;;3.70;99.90;;;;;;4901211;29;20846;-73
2023/03/07 02:45:18;;;;;;;12.07;10.57;;;3.70;99.90;;;;;;4900211;29;20455;-73
2023/03/07 02:47:47;;;;;;;15.00;11.00;;;3.70;99.90;;;;;;4899867;29;20561;-73
2023/03/07 02:50:18;;;;;;;12.00;10.57;;;3.70;99.90;;;;;;4900456;29;20785;-73
2023/03/07 02:52:50;;;;;;;13.33;11.20;;;3.70;99.90;;;;;;4899763;29;20495;-73
2023/03/07 02:55:19;;;;;;;11.93;9.80;;;3.70;99.90;;;;;;4899778;29;20452;-73
2023/03/07 02:57:58;;;;;;;12.57;10.03;;;3.70;99.90;;;;;;4899757;29;20448;-73
2023/03/07 03:00:26;;;;;;;11.30;9.40;;;3.70;99.90;;;;;;4899633;29;20894;-73
2023/03/07 03:02:55;;;;;;;11.83;10.03;;;3.70;99.90;;;;;;4899580;29;20528;-73
2023/03/07 03:05:23;;;;;;;11.27;9.20;;;3.70;99.90;;;;;;4899577;29;20530;-73
2023/03/07 03:07:52;;;;;;;11.07;8.50;;;3.70;99.90;;;;;;4899470;29;20564;-73
2023/03/07 03:10:20;;;;;;;9.47;7.80;;;3.70;99.90;;;;;;4899504;29;20472;-73
2023/03/07 03:12:49;;;;;;;9.23;7.73;;;3.60;99.90;;;;;;4899614;29;20593;-73
2023/03/07 03:15:19;;;;;;;10.90;9.30;;;3.70;99.90;;;;;;4899404;29;20457;-73
2023/03/07 03:17:47;;;;;;;10.37;8.27;;;3.70;99.90;;;;;;4899378;29;20974;-73
2023/03/07 03:20:16;;;;;;;10.93;8.53;;;3.70;99.90;;;;;;4899305;29;20453;-73
2023/03/07 03:22:44;;;;;;;9.80;7.47;;;3.70;99.90;;;;;;4900432;29;20472;-73
2023/03/07 03:25:14;;;;;;;10.73;8.63;;;3.70;99.90;;;;;;4899268;29;20460;-73
2023/03/07 03:27:44;;;;;;;10.20;8.13;;;3.70;99.90;;;;;;4898774;29;20902;-73
2023/03/07 03:30:14;;;;;;;9.20;7.67;;;3.70;99.90;;;;;;4898428;29;20452;-73
2023/03/07 03:32:44;;;;;;;11.67;7.43;;;3.60;99.90;;;;;;4899044;29;20999;-73
2023/03/07 03:35:14;;;;;;;9.37;8.00;;;3.60;99.90;;;;;;4899074;29;20446;-73
2023/03/07 03:37:43;;;;;;;10.60;6.90;;;3.60;99.90;;;;;;4899015;29;20457;-73
2023/03/07 03:40:16;;;;;;;7.80;6.20;;;3.60;99.90;;;;;;4898962;29;20520;-73
2023/03/07 03:42:45;;;;;;;10.70;6.70;;;3.60;99.90;;;;;;4898838;29;20532;-73
2023/03/07 03:45:16;;;;;;;7.90;6.40;;;3.60;99.90;;;;;;4898944;29;20835;-73
2023/03/07 03:47:47;;;;;;;7.57;6.03;;;3.60;99.90;;;;;;4899049;29;20477;-73
2023/03/07 03:50:16;;;;;;;9.10;5.80;;;3.60;99.90;;;;;;4898872;29;20446;-73
2023/03/07 03:52:44;;;;;;;9.77;6.03;;;3.60;99.90;;;;;;4898797;29;20855;-73
2023/03/07 03:55:12;;;;;;;9.83;6.53;;;3.60;99.90;;;;;;4898671;29;20460;-73
2023/03/07 03:57:41;;;;;;;9.03;6.43;;;3.60;99.90;;;;;;4898908;29;20548;-73
2023/03/07 04:00:13;;;;;;;9.03;5.67;;;3.60;99.90;;;;;;4898581;29;20460;-73
2023/03/07 04:02:41;;;;;;;11.53;6.47;;;3.50;99.90;;;;;;4898528;29;20477;-73
2023/03/07 04:05:15;;;;;;;12.50;6.17;;;3.50;99.90;;;;;;4898567;29;20492;-73
2023/03/07 04:07:44;;;;;;;15.23;6.30;;;3.50;99.90;;;;;;4898423;29;20848;-73
2023/03/07 04:10:12;;;;;;;8.10;5.20;;;3.50;99.90;;;;;;4898381;29;20986;-73
2023/03/07 04:12:40;;;;;;;10.80;5.97;;;3.50;99.90;;;;;;4898340;29;20477;-73
2023/03/07 04:15:09;;;;;;;8.77;4.93;;;3.50;99.90;;;;;;4898302;29;20449;-73
2023/03/07 04:17:38;;;;;;;7.80;4.50;;;3.50;99.90;;;;;;4898236;29;20460;-73
2023/03/07 04:20:13;;;;;;;7.57;4.77;;;3.50;99.90;;;;;;4898277;29;20803;-73
2023/03/07 04:22:44;;;;;;;12.67;5.23;;;3.40;99.90;;;;;;4898153;29;20503;-73
2023/03/07 04:25:12;;;;;;;9.90;4.17;;;3.50;99.90;;;;;;4898328;29;20467;-73
2023/03/07 04:27:40;;;;;;;6.60;4.50;;;3.40;99.90;;;;;;4897959;29;20481;-72
2023/03/07 04:30:09;;;;;;;9.37;4.73;;;3.40;99.90;;;;;;4899273;29;20473;-73
2023/03/07 04:32:41;;;;;;;7.73;4.20;;;3.40;99.90;;;;;;4897890;29;20488;-73
2023/03/07 04:35:09;;;;;;;6.70;4.30;;;3.40;99.90;;;;;;4897963;29;20449;-72
2023/03/07 04:37:37;;;;;;;11.17;3.90;;;3.40;99.90;;;;;;4897984;29;20867;-73
2023/03/07 04:40:08;;;;;;;10.63;4.83;;;3.40;99.90;;;;;;4897657;29;20793;-72
2023/03/07 04:42:37;;;;;;;9.57;4.50;;;3.40;99.90;;;;;;4897792;29;20568;-72
2023/03/07 04:45:05;;;;;;;6.50;4.00;;;3.40;99.90;;;;;;4897782;29;20451;-73
2023/03/07 04:47:34;;;;;;;7.47;4.27;;;3.40;99.90;;;;;;4897597;29;21001;-73
2023/03/07 04:50:02;;;;;;;7.40;3.80;;;3.40;99.90;;;;;;4897659;29;20540;-73
2023/03/07 04:52:32;;;;;;;12.60;4.57;;;3.40;99.90;;;;;;4897646;29;20477;-73
2023/03/07 04:55:00;;;;;;;6.77;3.97;;;3.40;99.90;;;;;;4897650;29;20457;-73
2023/03/07 04:57:30;;;;;;;8.03;3.47;;;3.40;99.90;;;;;;4897598;29;20457;-72
2023/03/07 04:59:59;;;;;;;7.40;3.50;;;3.40;99.90;;;;;;4897568;29;20456;-73
2023/03/07 05:02:27;;;;;;;7.83;3.57;;;3.40;99.90;;;;;;4897541;29;20476;-73
2023/03/07 05:04:55;;;;;;;6.80;3.20;;;3.40;99.90;;;;;;4897433;29;20453;-73
2023/03/07 05:07:24;;;;;;;8.90;3.97;;;3.40;99.90;;;;;;4897398;29;20566;-73
2023/03/07 05:09:52;;;;;;;8.67;3.37;;;3.40;99.90;;;;;;4897336;29;20563;-73
2023/03/07 05:12:20;;;;;;;7.03;3.40;;;3.40;99.90;;;;;;4897196;29;20885;-73
2023/03/07 05:14:50;;;;;;;10.23;4.07;;;3.40;99.90;;;;;;4897282;29;20484;-73
2023/03/07 05:17:19;;;;;;;6.00;3.03;;;3.40;99.90;;;;;;4897176;29;20908;-73
2023/03/07 05:19:48;;;;;;;12.60;2.67;;;3.40;99.90;;;;;;4897239;29;20813;-73
2023/03/07 05:22:16;;;;;;;8.83;2.70;;;3.40;99.90;;;;;;4897119;29;20564;-73
2023/03/07 05:24:44;;;;;;;10.93;3.07;;;3.40;99.90;;;;;;4897162;29;20456;-73
2023/03/07 05:27:12;;;;;;;7.63;2.47;;;3.40;99.90;;;;;;4897239;29;20492;-73
2023/03/07 05:29:40;;;;;;;8.50;2.50;;;3.40;99.90;;;;;;4898415;29;20472;-73
2023/03/07 05:32:10;;;;;;;10.43;2.60;;;3.40;99.90;;;;;;4896966;29;20468;-73
2023/03/07 05:34:39;;;;;;;10.30;3.43;;;3.40;99.90;;;;;;4897174;29;20507;-73
2023/03/07 05:37:08;;;;;;;11.87;2.60;;;3.30;99.90;;;;;;4897225;29;20560;-73
2023/03/07 05:39:40;;;;;;;4.50;2.40;;;3.30;99.90;;;;;;4897350;29;20801;-73
2023/03/07 05:42:08;;;;;;;7.90;2.30;;;3.30;99.90;;;;;;4897025;29;20535;-73
2023/03/07 05:44:37;;;;;;;7.43;2.90;;;3.30;99.90;;;;;;4896975;29;20991;-72
2023/03/07 05:47:06;;;;;;;8.90;2.27;;;3.30;99.90;;;;;;4896883;29;20463;-72
2023/03/07 05:49:39;;;;;;;6.27;2.17;;;3.30;99.90;;;;;;4897449;29;20452;-72
2023/03/07 05:52:08;;;;;;;11.43;2.63;;;3.30;99.90;;;;;;4898211;29;20513;-73
2023/03/07 05:54:38;;;;;;;7.70;2.60;;;3.30;99.90;;;;;;4900866;29;20960;-72
2023/03/07 05:57:06;;;;;;;6.93;1.90;;;3.30;99.90;;;;;;4900757;29;20459;-73
2023/03/07 05:59:37;;;;;;;7.53;2.50;;;3.30;99.90;;;;;;4900744;29;20522;-73
2023/03/07 06:02:05;;;;;;;8.83;2.17;;;3.20;99.90;;;;;;4901459;29;20445;-73
2023/03/07 06:04:33;;;;;;;7.37;2.23;;;3.20;99.90;;;;;;4901082;29;20874;-72
2023/03/07 06:07:03;;;;;;;7.53;2.00;;;3.20;99.90;;;;;;4900595;29;20511;-73
2023/03/07 06:09:31;;;;;;;7.13;2.07;;;3.20;99.90;;;;;;4900481;29;20523;-73
2023/03/07 06:12:01;;;;;;;5.17;1.77;;;3.20;99.90;;;;;;4900983;29;20967;-72
2023/03/07 06:14:31;;;;;;;6.37;2.23;;;3.20;99.90;;;;;;4900911;29;20461;-72
2023/03/07 06:17:00;;;;;;;5.60;2.07;;;3.20;99.90;;;;;;4902449;29;20445;-72
2023/03/07 06:19:29;;;;;;;6.80;2.00;;;3.20;99.90;;;;;;4900426;29;20451;-73
2023/03/07 06:21:58;;;;;;;6.20;2.17;;;3.20;99.90;;;;;;4900591;29;20466;-72
2023/03/07 06:24:27;;;;;;;11.50;2.50;;;3.20;99.90;;;;;;4900802;29;20492;-72
2023/03/07 06:26:55;;;;;;;10.77;2.30;;;3.20;99.90;;;;;;4900343;29;20516;-72
2023/03/07 06:29:25;;;;;;;9.27;3.07;;;3.20;99.90;;;;;;4900144;29;21002;-72
2023/03/07 06:31:54;;;;;;;6.70;1.67;;;3.20;99.90;;;;;;4901067;29;20863;-72
2023/03/07 06:34:22;;;;;;;14.43;2.73;;;3.10;99.90;;;;;;4900201;29;20533;-72
2023/03/07 06:36:50;;;;;;;8.40;2.00;;;3.20;99.90;;;;;;4900158;29;20457;-72
2023/03/07 06:39:20;;;;;;;5.50;2.03;;;3.20;99.90;;;;;;4900317;29;20873;-72
2023/03/07 06:41:53;;;;;;;9.63;2.13;;;3.20;99.90;;;;;;4900044;29;20437;-72
2023/03/07 06:44:21;;;;;;;8.00;2.60;;;3.20;99.90;;;;;;4901235;29;20451;-72
2023/03/07 06:46:49;;;;;;;8.30;2.27;;;3.20;99.90;;;;;;4901161;29;20453;-72
2023/03/07 06:49:20;;;;;;;8.40;1.97;;;3.20;99.90;;;;;;4899878;29;20487;-72
2023/03/07 06:51:49;;;;;;;7.10;2.47;;;3.30;99.90;;;;;;4899797;29;20452;-72
2023/03/07 06:54:18;;;;;;;7.97;2.10;;;3.30;99.90;;;;;;4899711;29;20465;-72
2023/03/07 06:56:46;;;;;;;8.70;2.00;;;3.30;99.90;;;;;;4900246;29;20499;-72
2023/03/07 06:59:20;;;;;;;5.40;3.00;;;3.30;99.90;;;;;;4899815;29;20452;-72
2023/03/07 07:01:48;;;;;;;6.47;2.27;;;3.30;99.90;;;;;;4899626;29;20498;-72
2023/03/07 07:04:18;;;;;;;8.90;2.30;;;3.30;99.90;;;;;;4899594;29;20469;-72
2023/03/07 07:06:48;;;;;;;7.50;2.27;;;3.30;99.90;;;;;;4899638;29;20446;-72
2023/03/07 07:09:16;;;;;;;6.80;2.20;;;3.30;99.90;;;;;;4899434;29;20535;-72
2023/03/07 07:11:45;;;;;;;5.37;1.60;;;3.40;99.90;;;;;;4899456;29;20457;-72
2023/03/07 07:14:13;;;;;;;8.27;2.10;;;3.40;99.90;;;;;;4899568;29;20991;-72
2023/03/07 07:16:43;;;;;;;7.53;2.30;;;3.40;99.90;;;;;;4899391;29;20492;-72
2023/03/07 07:19:11;;;;;;;6.50;1.90;;;3.50;99.90;;;;;;4899388;29;20450;-72
2023/03/07 07:21:39;;;;;;;7.00;2.30;;;3.50;99.90;;;;;;4899293;29;20509;-72
2023/03/07 07:24:10;;;;;;;11.10;2.40;;;3.50;99.90;;;;;;4899179;29;20994;-72
2023/03/07 07:26:39;;;;;;;8.13;2.13;;;3.60;99.90;;;;;;4899228;29;20966;-72
2023/03/07 07:29:08;;;;;;;6.43;2.07;;;3.60;99.90;;;;;;4899309;29;20486;-72
2023/03/07 07:31:36;;;;;;;7.57;2.70;;;3.60;99.90;;;;;;4899307;29;20455;-72
2023/03/07 07:34:06;;;;;;;11.53;2.10;;;3.60;99.90;;;;;;4899253;29;20954;-72
2023/03/07 07:36:34;;;;;;;8.27;2.23;;;3.70;99.90;;;;;;4899330;29;20491;-72
2023/03/07 07:39:04;;;;;;;8.63;2.47;;;3.70;99.90;;;;;;4899067;29;20512;-72
2023/03/07 07:41:33;;;;;;;10.10;2.00;;;3.70;99.90;;;;;;4899182;29;20457;-72
2023/03/07 07:44:01;;;;;;;9.10;2.80;;;3.70;99.90;;;;;;4898796;29;21064;-72
2023/03/07 07:46:43;;;;;;;8.93;2.17;;;3.80;99.90;;;;;;4899947;29;20449;-72
2023/03/07 07:49:13;;;;;;;11.40;2.40;;;3.80;99.90;;;;;;4898773;29;20480;-72
2023/03/07 07:51:41;;;;;;;10.30;2.33;;;3.80;99.90;;;;;;4898819;29;21010;-72
2023/03/07 07:54:10;;;;;;;8.80;2.33;;;3.80;99.90;;;;;;4898661;29;20473;-72
2023/03/07 07:56:38;;;;;;;5.27;2.10;;;3.80;99.90;;;;;;4899478;29;20513;-72
2023/03/07 07:59:06;;;;;;;7.63;2.27;;;3.80;99.90;;;;;;4898601;29;20492;-72
2023/03/07 08:01:34;;;;;;;10.23;2.73;;;3.80;99.90;;;;;;4898594;29;20468;-72
2023/03/07 08:04:02;;;;;;;10.57;2.77;;;3.80;99.90;;;;;;4899756;29;20488;-72
2023/03/07 08:06:32;;;;;;;8.87;2.50;;;3.90;99.90;;;;;;4899799;29;20456;-72
2023/03/07 08:09:00;;;;;;;6.77;1.60;;;3.90;99.90;;;;;;4898387;29;20890;-72
2023/03/07 08:11:28;;;;;;;8.00;2.20;;;3.90;99.90;;;;;;4898417;29;20819;-72
2023/03/07 08:13:57;;;;;;;7.87;2.23;;;3.90;99.90;;;;;;4898476;29;20486;-72
2023/03/07 08:16:25;;;;;;;8.20;2.67;;;3.90;99.90;;;;;;4897959;29;20464;-72
2023/03/07 08:18:55;;;;;;;5.50;1.80;;;3.90;99.90;;;;;;4899511;29;20489;-72
2023/03/07 08:21:23;;;;;;;6.60;1.97;;;4.00;99.90;;;;;;4899468;29;20460;-72
2023/03/07 08:23:53;;;;;;;7.67;1.93;;;4.00;99.90;;;;;;4899351;29;20836;-72
2023/03/07 08:26:21;;;;;;;7.73;2.30;;;4.10;99.90;;;;;;4899341;29;20445;-72
2023/03/07 08:28:50;;;;;;;8.40;1.73;;;4.10;99.90;;;;;;4899542;29;20475;-72
2023/03/07 08:31:19;;;;;;;7.90;1.90;;;4.10;99.90;;;;;;4899604;29;21007;-72
2023/03/07 08:33:47;;;;;;;5.87;1.80;;;4.20;99.90;;;;;;4898190;29;20639;-72
2023/03/07 08:36:16;;;;;;;8.07;2.23;;;4.20;99.90;;;;;;4899253;29;20456;-72
2023/03/07 08:38:49;;;;;;;9.40;2.23;;;4.20;99.90;;;;;;4897889;29;21066;-72
2023/03/07 08:41:20;;;;;;;10.50;2.30;;;4.20;99.90;;;;;;4899112;29;20440;-72
2023/03/07 08:43:48;;;;;;;10.97;2.40;;;4.20;99.90;;;;;;4899514;29;20468;-72
2023/03/07 08:46:16;;;;;;;6.43;2.00;;;4.20;99.90;;;;;;4899344;29;20939;-72
2023/03/07 08:48:44;;;;;;;8.37;2.30;;;4.30;99.90;;;;;;4897647;29;20457;-72
2023/03/07 08:51:15;;;;;;;8.27;2.33;;;4.30;99.90;;;;;;4899379;29;20441;-72
2023/03/07 08:53:45;;;;;;;7.40;2.20;;;4.30;99.90;;;;;;4897606;29;20566;-72
2023/03/07 08:56:15;;;;;;;6.23;2.40;;;4.30;99.90;;;;;;4898872;29;20440;-72
2023/03/07 08:58:45;;;;;;;7.03;2.40;;;4.30;99.90;;;;;;4897812;29;20873;-72
2023/03/07 09:01:13;;;;;;;9.70;2.00;;;4.40;99.90;;;;;;4898957;29;20442;-72
2023/03/07 09:03:42;;;;;;;8.33;2.30;;;4.40;99.90;;;;;;4897410;29;21097;-72
2023/03/07 09:06:16;;;;;;;6.10;2.00;;;4.40;99.90;;;;;;4898680;29;20500;-72
2023/03/07 09:08:46;;;;;;;10.80;2.33;;;4.30;99.90;;;;;;4898621;29;20489;-72
2023/03/07 09:11:14;;;;;;;7.00;2.17;;;4.40;99.90;;;;;;4898584;29;20472;-72
2023/03/07 09:13:44;;;;;;;5.53;1.60;;;4.40;99.90;;;;;;4898492;29;20469;-72
2023/03/07 09:16:20;;;;;;;6.57;1.93;;;4.40;99.90;;;;;;4898787;29;20451;-71
2023/03/07 09:18:48;;;;;;;8.03;2.40;;;4.40;99.90;;;;;;4897244;29;20465;-72
2023/03/07 09:21:16;;;;;;;6.63;1.97;;;4.40;99.90;;;;;;4898499;29;20463;-72
2023/03/07 09:23:45;;;;;;;7.93;2.27;;;4.50;99.90;;;;;;4898640;29;20463;-71
2023/03/07 09:26:13;;;;;;;8.73;2.40;;;4.50;99.90;;;;;;4897978;29;21027;-72
2023/03/07 09:28:41;;;;;;;8.77;2.00;;;4.50;99.90;;;;;;4898516;29;20456;-72
2023/03/07 09:31:14;;;;;;;6.90;2.13;;;4.50;99.90;;;;;;4898290;29;20473;-72
2023/03/07 09:33:42;;;;;;;9.67;2.00;;;4.50;99.90;;;;;;4897099;29;20557;-72
2023/03/07 09:36:14;;;;;;;8.83;2.50;;;4.50;99.90;;;;;;4897071;29;20456;-72
2023/03/07 09:38:42;;;;;;;8.00;2.20;;;4.60;99.90;;;;;;4898892;29;20852;-72
2023/03/07 09:41:31;;;;;;;9.90;2.50;;;4.60;99.90;;;;;;4898395;29;20457;-72
2023/03/07 09:44:07;;;;;;;10.83;2.57;;;4.60;99.90;;;;;;4897129;29;20838;-72
2023/03/07 09:47:24;;;;;;;9.43;2.40;;;4.60;99.90;;;;;;4897252;29;20457;-72
2023/03/07 09:49:53;;;;;;;9.50;2.80;;;4.60;99.90;;;;;;4898388;29;20483;-72
2023/03/07 09:52:25;;;;;;;7.27;2.53;;;4.70;99.90;;;;;;4896835;29;20469;-72
2023/03/07 09:54:58;;;;;;;10.27;2.70;;;4.70;99.90;;;;;;4898669;29;20425;-72
2023/03/07 09:57:30;;;;;;;6.53;2.00;;;4.70;99.90;;;;;;4898571;29;20422;-72
2023/03/07 10:00:04;;;;;;;8.03;2.03;;;4.80;99.90;;;;;;4898159;29;20429;-72
2023/03/07 10:02:47;;;;;;;8.80;2.33;;;4.80;99.90;;;;;;4898059;29;20465;-72
2023/03/07 10:05:26;;;;;;;6.00;2.30;;;4.80;99.90;;;;;;4898520;29;20436;-72
2023/03/07 10:07:55;;;;;;;8.70;2.20;;;4.90;99.90;;;;;;4898058;29;20481;-72
2023/03/07 10:10:26;;;;;;;6.20;2.33;;;4.90;99.90;;;;;;4898071;29;20477;-72
2023/03/07 10:13:09;;;;;;;11.53;2.60;;;4.90;99.90;;;;;;4898908;29;20461;-72
2023/03/07 10:15:45;;;;;;;6.33;2.30;;;4.90;99.90;;;;;;4898779;29;20461;-72
2023/03/07 10:18:31;;;;;;;7.63;2.00;;;4.90;99.90;;;;;;4898371;29;20417;-72
2023/03/07 10:21:07;;;;;;;8.40;2.93;;;4.80;99.90;;;;;;4896709;29;20861;-72
2023/03/07 10:23:51;;;;;;;6.57;2.83;;;4.70;99.90;;;;;;4897826;29;20500;-72
2023/03/07 10:26:24;;;;;;;12.07;2.27;;;4.60;99.90;;;;;;4896574;29;20474;-72
2023/03/07 10:28:53;;;;;;;5.53;1.70;;;4.40;99.90;;;;;;4898077;29;20430;-72
2023/03/07 10:31:25;;;;;;;9.63;2.23;;;4.20;99.90;;;;;;4897972;29;20827;-72
2023/03/07 10:33:55;;;;;;;7.90;1.83;;;4.10;99.90;;;;;;4898480;29;20479;-72
2023/03/07 10:36:34;;;;;;;8.77;1.80;;;3.90;99.90;;;;;;4898537;29;20828;-72
2023/03/07 10:39:06;;;;;;;6.30;1.70;;;3.70;99.90;;;;;;4900574;29;20428;-72
2023/03/07 10:41:34;;;;;;;10.00;2.17;;;3.50;99.90;;;;;;4901711;29;20440;-72
2023/03/07 10:44:02;;;;;;;5.30;1.50;;;3.40;99.90;;;;;;4901199;29;20464;-72
2023/03/07 10:46:34;;;;;;;7.20;2.07;;;3.30;99.90;;;;;;4901434;29;20445;-71
2023/03/07 10:49:14;;;;;;;5.77;1.60;;;3.20;99.90;;;;;;4899974;29;20918;-73
2023/03/07 10:51:54;;;;;;;5.83;1.20;;;3.20;99.90;;;;;;4900018;29;20461;-73
2023/03/07 10:54:27;;;;;;;4.00;1.83;;;3.30;99.90;;;;;;4901543;29;20471;-74
2023/03/07 10:57:04;;;;;;;6.67;1.77;;;3.30;99.90;;;;;;4899811;29;20962;-72
2023/03/07 10:59:32;;;;;;;4.47;1.27;;;3.40;99.90;;;;;;4901047;29;20474;-73
2023/03/07 11:02:04;;;;;;;6.33;1.57;;;3.40;99.90;;;;;;4901140;29;20946;-73
2023/03/07 11:04:46;;;;;;;6.57;2.30;;;3.50;99.90;;;;;;4901311;29;20912;-73
2023/03/07 11:07:27;;;;;;;7.40;2.60;;;3.60;99.90;;;;;;4899670;29;20888;-73
2023/03/07 11:09:56;;;;;;;7.53;2.23;;;3.70;99.90;;;;;;4901276;29;20476;-73
2023/03/07 11:12:26;;;;;;;11.77;2.37;;;3.70;99.90;;;;;;4900886;29;20472;-72
2023/03/07 11:14:56;;;;;;;6.17;2.03;;;3.80;99.90;;;;;;4899616;29;20449;-72
2023/03/07 11:17:27;;;;;;;9.43;2.80;;;3.90;99.90;;;;;;4900736;29;20431;-72
2023/03/07 11:19:57;;;;;;;5.90;2.30;;;4.00;99.90;;;;;;4899401;29;20493;-72
2023/03/07 11:22:28;;;;;;;6.20;2.20;;;4.00;99.90;;;;;;4900803;29;20809;-72
2023/03/07 11:25:01;;;;;;;12.20;2.33;;;4.10;99.90;;;;;;4900641;29;20473;-72
2023/03/07 11:27:35;;;;;;;7.53;2.60;;;4.10;99.90;;;;;;4899247;29;20457;-72
2023/03/07 11:30:15;;;;;;;5.40;2.27;;;4.20;99.90;;;;;;4900682;29;20457;-72
2023/03/07 11:32:50;;;;;;;7.00;2.90;;;4.20;99.90;;;;;;4900698;29;20465;-72
2023/03/07 11:35:24;;;;;;;9.50;2.40;;;4.30;99.90;;;;;;4900701;29;20436;-72
2023/03/07 11:38:06;;;;;;;6.03;2.47;;;4.30;99.90;;;;;;4900311;29;20437;-72
2023/03/07 11:40:41;;;;;;;6.33;2.20;;;4.30;99.90;;;;;;4900914;29;20785;-72
2023/03/07 11:43:19;;;;;;;8.43;2.50;;;4.40;99.90;;;;;;4899074;29;20559;-72
2023/03/07 11:45:52;;;;;;;10.43;2.67;;;4.40;99.90;;;;;;4899004;29;20536;-72
2023/03/07 11:48:40;;;;;;;6.47;1.97;;;4.50;99.90;;;;;;4899180;29;20552;-72
2023/03/07 11:51:30;;;;;;;5.80;2.07;;;4.50;99.90;;;;;;4899370;29;20484;-72
2023/03/07 11:54:07;;;;;;;6.87;2.73;;;4.50;99.90;;;;;;4898853;29;20481;-72
2023/03/07 11:56:39;;;;;;;9.90;2.53;;;4.60;99.90;;;;;;4898912;29;20455;-72
2023/03/07 11:59:41;;;;;;;9.37;2.70;;;4.60;99.90;;;;;;4898732;29;20946;-72
2023/03/07 12:02:39;;;;;;;8.17;2.70;;;4.60;99.90;;;;;;4898600;29;20460;-72
2023/03/07 12:05:26;;;;;;;8.67;2.77;;;4.60;99.90;;;;;;4899808;29;20441;-72
2023/03/07 12:08:39;;;;;;;8.77;2.30;;;4.70;99.90;;;;;;4899761;29;20524;-72
2023/03/07 12:11:28;;;;;;;8.80;2.60;;;4.70;99.90;;;;;;4826648;29;20479;-72
2023/03/07 12:14:04;;;;;;;10.50;2.70;;;4.70;99.90;;;;;;4841910;29;20479;-72
2023/03/07 12:16:45;;;;;;;8.83;2.27;;;4.80;99.90;;;;;;4880615;29;20457;-72
2023/03/07 12:19:38;;;;;;;10.80;2.93;;;4.90;99.90;;;;;;4899650;29;20971;-72
2023/03/07 12:22:24;;;;;;;8.77;3.00;;;4.90;99.90;;;;;;4898311;29;20501;-72
2023/03/07 12:25:20;;;;;;;8.10;3.00;;;5.00;99.90;;;;;;4899779;29;20520;-72
2023/03/07 12:27:59;;;;;;;10.27;3.23;;;5.00;99.90;;;;;;4898288;29;20466;-72
2023/03/07 12:30:35;;;;;;;6.03;2.27;;;5.10;99.90;;;;;;4898170;29;20437;-72
2023/03/07 12:33:05;;;;;;;11.40;3.00;;;5.10;99.90;;;;;;4899583;29;20974;-72
2023/03/07 12:35:45;;;;;;;6.10;2.47;;;5.10;99.90;;;;;;4899854;29;20464;-72
2023/03/07 12:38:20;;;;;;;8.53;3.00;;;5.10;99.90;;;;;;4899229;29;20884;-72
2023/03/07 12:40:56;;;;;;;5.57;1.93;;;5.10;99.90;;;;;;4897985;29;20448;-72
2023/03/07 12:43:29;;;;;;;8.27;2.33;;;5.20;99.90;;;;;;4899044;29;20461;-72
2023/03/07 12:46:09;;;;;;;11.03;2.83;;;5.20;99.90;;;;;;4897864;29;20919;-73
2023/03/07 12:48:42;;;;;;;5.73;2.43;;;5.30;99.90;;;;;;4897855;29;20452;-74
2023/03/07 12:51:19;;;;;;;9.40;2.90;;;5.30;99.90;;;;;;4899242;29;20460;-72
2023/03/07 12:53:53;;;;;;;9.00;2.20;;;5.40;99.90;;;;;;4897742;29;20469;-72
2023/03/07 12:56:31;;;;;;;10.17;2.37;;;5.50;99.90;;;;;;4899028;29;20464;-72
2023/03/07 12:59:03;;;;;;;8.63;2.93;;;5.50;99.90;;;;;;4898966;29;20428;-72
2023/03/07 13:01:35;;;;;;;6.87;1.60;;;5.50;99.90;;;;;;4897456;29;20445;-72
2023/03/07 13:04:13;;;;;;;7.30;2.23;;;5.60;99.90;;;;;;4898761;29;20477;-72
2023/03/07 13:06:43;;;;;;;10.43;2.23;;;5.60;99.90;;;;;;4897589;29;20455;-72
2023/03/07 13:09:19;;;;;;;9.77;2.30;;;5.60;99.90;;;;;;4897462;29;20453;-72
2023/03/07 13:12:23;;;;;;;9.43;2.47;;;5.60;99.90;;;;;;4898661;29;20492;-72
2023/03/07 13:14:52;;;;;;;7.97;3.40;;;5.60;99.90;;;;;;4897667;29;20544;-72